Time;durP1;ratioP1;P1;durP2;ratioP2;P2;SDS_P1;SDS_P2;PMS_P1;PMS_P2;Temp;Humidity;BMP_temperature;BMP_pressure;BME280_temperature;BME280_humidity;BME280_pressure;Samples;Min_cycle;Max_cycle;Signal;HPM_P1;HPM_P2
2022/10/06 00:02:21;;;;;;;7.22;1.48;;;16.30;78.60;;;;;;5117745;27;20035;-62
2022/10/06 00:04:46;;;;;;;10.30;2.00;;;16.30;77.90;;;;;;5117695;28;20019;-62
2022/10/06 00:07:13;;;;;;;5.82;1.42;;;16.20;77.80;;;;;;5116841;28;20012;-62
2022/10/06 00:09:39;;;;;;;4.75;1.60;;;16.20;77.80;;;;;;5117662;28;20356;-62
2022/10/06 00:12:05;;;;;;;5.88;1.55;;;16.20;77.70;;;;;;5116124;28;20027;-61
2022/10/06 00:14:30;;;;;;;5.82;1.48;;;16.20;77.70;;;;;;5116672;28;20026;-62
2022/10/06 00:16:56;;;;;;;8.13;1.90;;;16.20;77.60;;;;;;5116655;28;20141;-62
2022/10/06 00:19:21;;;;;;;6.68;1.50;;;16.20;77.50;;;;;;5117468;28;20062;-62
2022/10/06 00:21:47;;;;;;;7.53;1.65;;;16.20;77.50;;;;;;5116279;27;20028;-62
2022/10/06 00:24:13;;;;;;;10.30;1.50;;;16.20;77.40;;;;;;5115088;28;20406;-62
2022/10/06 00:26:38;;;;;;;9.95;1.70;;;16.20;77.30;;;;;;5116614;28;20032;-62
2022/10/06 00:29:04;;;;;;;9.05;1.50;;;16.20;77.20;;;;;;5117287;27;20161;-62
2022/10/06 00:31:30;;;;;;;7.15;1.70;;;16.20;77.10;;;;;;5116469;27;20107;-62
2022/10/06 00:33:55;;;;;;;9.25;1.67;;;16.20;77.00;;;;;;5117163;28;20019;-62
2022/10/06 00:36:21;;;;;;;10.60;2.38;;;16.10;76.90;;;;;;5116284;28;20023;-62
2022/10/06 00:38:48;;;;;;;7.30;1.67;;;16.10;76.70;;;;;;5133379;27;20379;-61
2022/10/06 00:41:16;;;;;;;8.27;1.50;;;16.10;76.60;;;;;;5116488;27;20038;-61
2022/10/06 00:43:49;;;;;;;6.32;1.50;;;16.10;76.40;;;;;;5097315;28;20524;-62
2022/10/06 00:46:17;;;;;;;6.07;1.40;;;16.10;76.30;;;;;;5121629;27;20409;-62
2022/10/06 00:48:45;;;;;;;9.00;1.75;;;16.10;76.10;;;;;;5118756;27;20409;-61
2022/10/06 00:51:11;;;;;;;4.95;1.25;;;16.10;76.00;;;;;;5115640;27;20031;-62
2022/10/06 00:53:37;;;;;;;9.77;1.98;;;16.10;76.00;;;;;;5116096;28;20035;-62
2022/10/06 00:56:03;;;;;;;9.70;2.17;;;16.10;75.80;;;;;;5115985;28;20510;-62
2022/10/06 00:58:30;;;;;;;10.75;1.85;;;16.00;75.70;;;;;;5116030;27;20102;-62
2022/10/06 01:00:58;;;;;;;7.88;1.52;;;16.00;75.60;;;;;;5115873;27;20031;-62
2022/10/06 01:03:32;;;;;;;9.00;2.03;;;16.00;75.50;;;;;;5115649;28;20034;-62
2022/10/06 01:06:00;;;;;;;11.18;2.35;;;16.00;75.50;;;;;;5115181;28;20140;-62
2022/10/06 01:08:27;;;;;;;8.73;1.75;;;16.00;75.40;;;;;;5116862;28;20458;-62
2022/10/06 01:10:53;;;;;;;10.45;2.22;;;15.90;75.30;;;;;;5115799;27;20023;-62
2022/10/06 01:13:20;;;;;;;8.73;2.00;;;15.90;75.30;;;;;;5116208;28;20055;-62
2022/10/06 01:16:09;;;;;;;8.20;1.60;;;15.90;75.20;;;;;;5116010;28;20028;-62
2022/10/06 01:18:38;;;;;;;6.30;1.95;;;15.90;75.10;;;;;;5115941;28;20044;-62
2022/10/06 01:21:28;;;;;;;9.07;1.55;;;15.90;75.20;;;;;;5115021;27;20035;-62
2022/10/06 01:23:56;;;;;;;11.77;1.85;;;15.90;75.00;;;;;;5131719;27;20470;-62
2022/10/06 01:26:23;;;;;;;8.32;1.63;;;15.90;75.10;;;;;;5132524;27;20459;-62
2022/10/06 01:28:50;;;;;;;9.85;1.83;;;15.80;75.00;;;;;;5119278;27;20080;-62
2022/10/06 01:31:16;;;;;;;7.82;1.90;;;15.80;75.00;;;;;;5117648;27;20092;-62
2022/10/06 01:33:42;;;;;;;8.05;1.60;;;15.80;74.90;;;;;;5114385;27;20023;-61
2022/10/06 01:36:10;;;;;;;9.18;1.67;;;15.80;74.80;;;;;;5115042;28;20027;-62
2022/10/06 01:38:35;;;;;;;8.45;1.50;;;15.80;74.80;;;;;;5115850;28;20184;-62
2022/10/06 01:41:03;;;;;;;7.22;1.88;;;15.70;74.70;;;;;;5132482;27;20056;-62
2022/10/06 01:43:28;;;;;;;9.23;1.55;;;15.70;74.70;;;;;;5133651;27;20054;-62
2022/10/06 01:45:56;;;;;;;8.85;1.38;;;15.70;74.70;;;;;;5097881;28;20034;-62
2022/10/06 01:48:22;;;;;;;6.55;1.60;;;15.70;74.70;;;;;;5131965;27;20042;-61
2022/10/06 01:50:49;;;;;;;13.00;1.88;;;15.70;74.60;;;;;;5114071;27;20023;-62
2022/10/06 01:53:16;;;;;;;8.48;1.65;;;15.70;74.60;;;;;;5114945;28;20023;-61
2022/10/06 01:55:42;;;;;;;8.63;1.80;;;15.60;74.50;;;;;;5115463;28;20440;-62
2022/10/06 01:58:10;;;;;;;11.90;2.35;;;15.60;74.40;;;;;;5131689;27;20019;-62
2022/10/06 02:00:36;;;;;;;8.88;1.88;;;15.60;74.50;;;;;;5129837;27;20072;-61
2022/10/06 02:03:02;;;;;;;8.27;2.50;;;15.70;74.50;;;;;;5116973;27;20398;-62
2022/10/06 02:05:27;;;;;;;7.05;1.85;;;15.70;74.50;;;;;;5115236;28;20028;-61
2022/10/06 02:07:53;;;;;;;9.45;2.50;;;15.70;74.40;;;;;;5114242;28;20052;-62
2022/10/06 02:10:19;;;;;;;10.40;2.17;;;15.70;74.40;;;;;;5112448;28;20403;-62
2022/10/06 02:12:51;;;;;;;8.05;1.45;;;15.70;74.30;;;;;;5113829;27;20023;-62
2022/10/06 02:15:19;;;;;;;10.13;2.33;;;15.60;74.20;;;;;;5131116;27;20355;-62
2022/10/06 02:17:46;;;;;;;10.60;1.95;;;15.60;74.20;;;;;;5131357;27;20509;-62
2022/10/06 02:20:12;;;;;;;13.13;2.45;;;15.60;74.20;;;;;;5114583;28;20038;-62
2022/10/06 02:22:39;;;;;;;9.05;1.90;;;15.60;74.10;;;;;;5114780;28;20028;-62
2022/10/06 02:25:05;;;;;;;6.30;1.83;;;15.60;74.10;;;;;;5117937;27;20023;-62
2022/10/06 02:27:31;;;;;;;11.85;1.83;;;15.60;74.00;;;;;;5118196;27;20469;-62
2022/10/06 02:29:57;;;;;;;9.02;1.73;;;15.50;74.00;;;;;;5131500;27;20486;-61
2022/10/06 02:32:23;;;;;;;8.98;1.90;;;15.60;74.00;;;;;;5113597;28;20027;-62
2022/10/06 02:34:49;;;;;;;11.90;2.70;;;15.50;73.90;;;;;;5113633;28;20027;-62
2022/10/06 02:37:15;;;;;;;6.15;1.48;;;15.50;73.80;;;;;;5114167;28;20474;-62
2022/10/06 02:39:41;;;;;;;13.52;2.40;;;15.50;73.80;;;;;;5132346;27;20022;-62
2022/10/06 02:42:07;;;;;;;6.75;2.17;;;15.40;73.70;;;;;;5113431;28;20356;-62
2022/10/06 02:44:33;;;;;;;12.00;2.40;;;15.40;73.70;;;;;;5114769;28;20042;-62
2022/10/06 02:46:58;;;;;;;9.55;1.90;;;15.40;73.70;;;;;;5113929;28;20500;-62
2022/10/06 02:49:24;;;;;;;8.20;2.20;;;15.40;73.70;;;;;;5113101;28;20414;-62
2022/10/06 02:51:50;;;;;;;10.23;2.03;;;15.40;73.80;;;;;;5114153;28;20114;-61
2022/10/06 02:54:16;;;;;;;12.75;2.33;;;15.30;73.70;;;;;;5114708;28;20363;-61
2022/10/06 02:56:42;;;;;;;8.23;2.05;;;15.30;73.70;;;;;;5114841;28;20039;-61
2022/10/06 02:59:07;;;;;;;9.35;1.80;;;15.30;73.70;;;;;;5114203;28;20028;-62
2022/10/06 03:01:34;;;;;;;9.27;2.25;;;15.30;73.70;;;;;;5115164;28;20020;-62
2022/10/06 03:04:07;;;;;;;9.27;1.60;;;15.20;73.60;;;;;;5110914;28;20012;-62
2022/10/06 03:06:33;;;;;;;11.48;2.38;;;15.30;73.70;;;;;;5121712;28;20028;-62
2022/10/06 03:09:18;;;;;;;11.05;2.28;;;15.30;73.70;;;;;;5100408;28;20034;-62
2022/10/06 03:11:44;;;;;;;7.30;1.42;;;15.20;73.60;;;;;;5130263;28;20037;-61
2022/10/06 03:14:14;;;;;;;11.88;1.80;;;15.20;73.60;;;;;;5113100;28;20444;-61
2022/10/06 03:16:42;;;;;;;6.75;1.67;;;15.20;73.70;;;;;;5118793;28;20109;-62
2022/10/06 03:19:13;;;;;;;7.97;1.75;;;15.10;73.60;;;;;;5113517;28;20055;-62
2022/10/06 03:21:42;;;;;;;8.45;1.67;;;15.10;73.60;;;;;;5116446;27;20367;-62
2022/10/06 03:24:10;;;;;;;15.30;2.45;;;15.10;73.60;;;;;;5117272;28;20020;-62
2022/10/06 03:26:42;;;;;;;7.07;1.70;;;15.10;74.30;;;;;;5117667;28;20035;-62
2022/10/06 03:29:09;;;;;;;8.68;1.80;;;15.00;73.50;;;;;;5134811;27;20055;-61
2022/10/06 03:31:37;;;;;;;8.50;1.92;;;15.00;73.50;;;;;;5132862;27;20034;-61
2022/10/06 03:34:03;;;;;;;7.18;2.08;;;15.00;73.50;;;;;;5123400;27;20487;-62
2022/10/06 03:36:32;;;;;;;9.45;1.55;;;15.00;73.60;;;;;;5117337;28;20076;-61
2022/10/06 03:38:59;;;;;;;12.23;2.38;;;15.00;73.60;;;;;;5134605;27;20023;-62
2022/10/06 03:41:28;;;;;;;8.07;2.17;;;15.00;73.60;;;;;;5134575;27;20027;-62
2022/10/06 03:43:56;;;;;;;9.40;1.98;;;15.00;73.60;;;;;;5114744;28;20479;-62
2022/10/06 03:46:28;;;;;;;9.70;1.83;;;14.90;73.60;;;;;;5116569;27;20107;-62
2022/10/06 03:48:56;;;;;;;11.35;1.75;;;14.90;73.60;;;;;;5118809;28;20378;-62
2022/10/06 03:51:30;;;;;;;11.02;2.13;;;14.90;73.60;;;;;;5132612;27;20059;-62
2022/10/06 03:53:57;;;;;;;7.00;1.67;;;14.80;73.60;;;;;;5117169;28;20050;-62
2022/10/06 03:56:23;;;;;;;9.23;2.45;;;14.90;73.70;;;;;;5117208;28;20024;-62
2022/10/06 03:58:52;;;;;;;9.98;1.70;;;14.80;73.70;;;;;;5117516;28;20047;-61
2022/10/06 04:01:20;;;;;;;7.65;2.30;;;14.80;73.70;;;;;;5131871;27;20143;-62
2022/10/06 04:03:46;;;;;;;8.18;2.03;;;14.80;73.80;;;;;;5115784;28;20037;-62
2022/10/06 04:06:16;;;;;;;10.05;2.00;;;14.80;73.70;;;;;;5117930;28;20016;-62
2022/10/06 04:08:43;;;;;;;7.68;1.90;;;14.80;73.70;;;;;;5133850;27;20080;-62
2022/10/06 04:11:15;;;;;;;10.45;1.88;;;14.70;73.70;;;;;;5133151;27;20460;-62
2022/10/06 04:13:42;;;;;;;7.03;1.67;;;14.80;73.80;;;;;;5115814;28;20039;-62
2022/10/06 04:16:16;;;;;;;7.45;2.05;;;14.70;73.70;;;;;;5132751;27;20062;-62
2022/10/06 04:18:44;;;;;;;8.68;1.60;;;14.70;74.40;;;;;;5118966;27;20043;-61
2022/10/06 04:21:11;;;;;;;6.97;1.63;;;14.70;73.80;;;;;;5133011;27;20102;-62
2022/10/06 04:23:37;;;;;;;9.68;1.90;;;14.70;73.90;;;;;;5115968;28;20028;-62
2022/10/06 04:26:09;;;;;;;7.65;1.60;;;14.70;73.90;;;;;;5103079;28;20038;-62
2022/10/06 04:28:39;;;;;;;9.75;1.77;;;14.60;73.90;;;;;;5133607;27;20032;-62
2022/10/06 04:31:13;;;;;;;7.95;1.60;;;14.60;73.90;;;;;;5114509;28;20024;-62
2022/10/06 04:33:39;;;;;;;6.30;1.67;;;14.60;74.00;;;;;;5115291;28;20030;-62
2022/10/06 04:36:06;;;;;;;8.82;2.30;;;14.60;74.00;;;;;;5116363;28;20108;-62
2022/10/06 04:38:35;;;;;;;9.27;1.92;;;14.50;74.00;;;;;;5133307;27;20032;-62
2022/10/06 04:41:14;;;;;;;8.70;1.60;;;14.50;73.90;;;;;;5131638;27;20027;-62
2022/10/06 04:43:40;;;;;;;11.52;2.05;;;14.50;74.00;;;;;;5115073;28;20016;-62
2022/10/06 04:46:08;;;;;;;7.97;1.88;;;14.50;74.00;;;;;;5116161;28;20042;-62
2022/10/06 04:48:34;;;;;;;8.27;1.67;;;14.50;74.00;;;;;;5116941;28;20428;-62
2022/10/06 04:51:02;;;;;;;9.23;2.10;;;14.50;74.00;;;;;;5116156;28;20035;-62
2022/10/06 04:53:29;;;;;;;9.43;1.88;;;14.50;74.00;;;;;;5116898;28;20055;-59
2022/10/06 04:56:07;;;;;;;10.52;2.47;;;14.40;74.00;;;;;;5130569;27;20028;-57
2022/10/06 04:58:39;;;;;;;11.63;2.17;;;14.40;74.00;;;;;;5115743;28;20020;-58
2022/10/06 05:01:15;;;;;;;9.38;1.88;;;14.40;74.10;;;;;;5131376;27;20035;-59
2022/10/06 05:03:42;;;;;;;11.40;2.15;;;14.40;74.00;;;;;;5114952;27;20107;-57
2022/10/06 05:06:12;;;;;;;11.23;2.03;;;14.40;74.10;;;;;;5114201;27;20047;-58
2022/10/06 05:08:38;;;;;;;8.05;1.80;;;14.40;74.00;;;;;;5115590;28;20080;-58
2022/10/06 05:11:07;;;;;;;9.75;2.33;;;14.40;74.10;;;;;;5131123;27;20114;-58
2022/10/06 05:13:33;;;;;;;7.38;2.05;;;14.40;74.10;;;;;;5113329;28;20034;-58
2022/10/06 05:16:01;;;;;;;9.32;2.22;;;14.30;74.00;;;;;;5132462;27;20445;-57
2022/10/06 05:18:30;;;;;;;13.25;2.30;;;14.30;74.10;;;;;;5132366;27;20059;-53
2022/10/06 05:21:07;;;;;;;10.23;2.20;;;14.30;74.20;;;;;;5099502;28;20062;-58
2022/10/06 05:23:36;;;;;;;9.43;1.98;;;14.30;74.20;;;;;;5108944;27;20042;-57
2022/10/06 05:26:03;;;;;;;10.50;1.75;;;14.30;74.10;;;;;;5114586;28;20380;-57
2022/10/06 05:28:30;;;;;;;8.07;1.92;;;14.30;74.20;;;;;;5131708;27;20024;-57
2022/10/06 05:31:18;;;;;;;8.68;2.10;;;14.20;74.10;;;;;;5131138;27;20034;-59
2022/10/06 05:33:45;;;;;;;10.43;2.00;;;14.20;74.20;;;;;;5113727;28;20477;-58
2022/10/06 05:36:13;;;;;;;9.50;2.05;;;14.20;74.20;;;;;;5115096;28;20115;-58
2022/10/06 05:38:40;;;;;;;7.90;1.80;;;14.20;74.20;;;;;;5132624;27;20019;-60
2022/10/06 05:41:07;;;;;;;7.43;1.58;;;14.10;74.20;;;;;;5115678;28;20066;-59
2022/10/06 05:43:33;;;;;;;9.18;1.88;;;14.20;74.30;;;;;;5131508;27;20051;-58
2022/10/06 05:46:01;;;;;;;6.00;1.80;;;14.10;74.30;;;;;;5117239;27;20015;-58
2022/10/06 05:48:28;;;;;;;5.30;1.80;;;14.10;74.40;;;;;;5117552;27;20019;-54
2022/10/06 05:51:02;;;;;;;8.88;1.95;;;14.10;74.40;;;;;;5132105;27;20024;-58
2022/10/06 05:53:30;;;;;;;10.45;2.25;;;14.10;74.40;;;;;;5133147;27;20049;-56
2022/10/06 05:56:15;;;;;;;10.57;2.15;;;14.10;74.40;;;;;;5131830;27;20020;-58
2022/10/06 05:58:42;;;;;;;8.63;2.17;;;14.10;74.40;;;;;;5131716;27;20019;-57
2022/10/06 06:01:20;;;;;;;7.32;2.40;;;14.00;74.40;;;;;;5129851;27;20035;-59
2022/10/06 06:03:49;;;;;;;10.77;2.40;;;14.00;74.50;;;;;;5131692;27;20106;-58
2022/10/06 06:06:27;;;;;;;9.75;1.92;;;14.00;74.50;;;;;;5131822;27;20034;-57
2022/10/06 06:09:01;;;;;;;8.02;2.15;;;14.00;74.50;;;;;;5131736;27;20016;-57
2022/10/06 06:11:30;;;;;;;7.38;2.00;;;14.00;74.50;;;;;;5115199;27;20402;-58
2022/10/06 06:14:01;;;;;;;9.18;2.10;;;14.00;74.50;;;;;;5116232;27;20027;-61
2022/10/06 06:16:31;;;;;;;9.90;2.53;;;14.10;74.70;;;;;;5112153;28;20055;-59
2022/10/06 06:18:58;;;;;;;8.60;2.08;;;14.10;74.60;;;;;;5112321;28;20047;-59
2022/10/06 06:21:25;;;;;;;10.65;2.22;;;14.10;74.60;;;;;;5133186;27;20340;-59
2022/10/06 06:23:51;;;;;;;8.10;2.05;;;14.10;74.50;;;;;;5117169;27;20031;-58
2022/10/06 06:26:23;;;;;;;14.25;2.50;;;14.10;74.50;;;;;;5118403;27;20080;-59
2022/10/06 06:28:50;;;;;;;9.18;2.25;;;14.10;74.50;;;;;;5119109;27;20114;-59
2022/10/06 06:31:26;;;;;;;12.48;2.05;;;14.10;74.50;;;;;;5117289;27;20123;-59
2022/10/06 06:33:55;;;;;;;13.02;2.65;;;14.20;74.40;;;;;;5128000;27;20092;-60
2022/10/06 06:36:24;;;;;;;9.98;2.45;;;14.20;74.40;;;;;;5128317;27;20024;-60
2022/10/06 06:38:52;;;;;;;10.73;2.53;;;14.20;74.40;;;;;;5130260;27;20130;-60
2022/10/06 06:41:28;;;;;;;9.00;2.25;;;14.20;74.40;;;;;;5118405;27;20050;-60
2022/10/06 06:44:05;;;;;;;8.48;2.15;;;14.20;74.30;;;;;;5113614;28;20047;-61
2022/10/06 06:46:37;;;;;;;10.63;2.10;;;14.30;74.30;;;;;;5130514;27;20026;-60
2022/10/06 06:49:06;;;;;;;11.15;2.50;;;14.20;74.20;;;;;;5129834;27;20047;-59
2022/10/06 06:51:39;;;;;;;9.80;2.60;;;14.30;74.30;;;;;;5117053;28;20019;-60
2022/10/06 06:54:06;;;;;;;11.05;2.50;;;14.30;74.20;;;;;;5113871;28;20459;-60
2022/10/06 06:56:34;;;;;;;9.65;2.03;;;14.30;74.20;;;;;;5095606;27;20019;-60
2022/10/06 06:59:09;;;;;;;10.68;2.17;;;14.40;74.20;;;;;;5123326;27;20046;-60
2022/10/06 07:01:35;;;;;;;8.68;2.67;;;14.40;74.10;;;;;;5105077;27;20367;-60
2022/10/06 07:04:00;;;;;;;10.45;2.47;;;14.40;74.00;;;;;;5119285;27;20034;-60
2022/10/06 07:06:31;;;;;;;10.98;2.10;;;14.40;74.00;;;;;;5101433;28;20094;-61
2022/10/06 07:08:59;;;;;;;13.13;2.47;;;14.50;73.90;;;;;;5135040;27;20024;-60
2022/10/06 07:11:27;;;;;;;10.02;1.85;;;14.50;73.80;;;;;;5116518;27;20024;-60
2022/10/06 07:14:00;;;;;;;11.93;2.67;;;14.50;73.80;;;;;;5119134;28;20020;-61
2022/10/06 07:25:06;;;;;;;10.52;2.58;;;14.60;73.60;;;;;;5119976;27;20019;-61
2022/10/06 07:27:41;;;;;;;16.85;2.22;;;14.60;73.50;;;;;;5119428;27;20042;-61
2022/10/06 07:30:16;;;;;;;8.38;2.35;;;14.70;73.40;;;;;;5133321;27;20020;-61
2022/10/06 07:32:43;;;;;;;12.00;2.78;;;14.80;73.40;;;;;;5117825;27;20047;-61
2022/10/06 07:35:09;;;;;;;10.15;2.60;;;14.80;73.30;;;;;;5117525;28;20043;-60
2022/10/06 07:37:35;;;;;;;11.77;2.70;;;14.90;73.20;;;;;;5117399;27;20061;-61
2022/10/06 07:40:02;;;;;;;12.95;2.60;;;14.90;73.10;;;;;;5117448;28;20024;-61
2022/10/06 07:42:29;;;;;;;10.63;2.60;;;15.00;73.00;;;;;;5115728;27;20051;-61
2022/10/06 07:47:40;;;;;;;11.27;2.45;;;15.20;72.70;;;;;;5116939;27;20023;-61
2022/10/06 07:50:07;;;;;;;11.57;2.45;;;15.30;72.40;;;;;;5116878;27;20019;-61
2022/10/06 07:52:35;;;;;;;13.35;2.92;;;15.30;72.10;;;;;;5118425;27;20027;-61
2022/10/06 07:55:01;;;;;;;9.70;2.35;;;15.40;72.00;;;;;;5133933;27;20114;-61
2022/10/06 07:58:01;;;;;;;11.45;3.47;;;15.50;71.80;;;;;;5119496;27;20102;-61
2022/10/06 08:00:27;;;;;;;12.07;3.65;;;15.60;71.50;;;;;;5120686;27;20126;-61
2022/10/06 08:02:53;;;;;;;13.20;3.13;;;15.70;71.40;;;;;;5116500;28;20027;-61
2022/10/06 08:05:20;;;;;;;11.48;2.83;;;15.80;71.20;;;;;;5117324;28;20043;-61
2022/10/06 08:07:46;;;;;;;10.05;2.88;;;15.90;70.90;;;;;;5116663;28;20352;-61
2022/10/06 08:10:11;;;;;;;9.05;2.63;;;16.10;70.70;;;;;;5118221;27;20114;-61
2022/10/06 08:12:38;;;;;;;11.88;2.67;;;16.10;70.30;;;;;;5115798;28;20032;-61
2022/10/06 08:15:06;;;;;;;13.90;3.15;;;16.30;70.00;;;;;;5123019;27;20034;-61
2022/10/06 08:17:33;;;;;;;12.93;3.17;;;16.40;69.70;;;;;;5109987;28;20027;-61
2022/10/06 08:19:59;;;;;;;10.13;2.67;;;16.50;69.40;;;;;;5117788;27;20035;-61
2022/10/06 08:22:28;;;;;;;15.35;3.28;;;16.60;69.10;;;;;;5116527;27;20079;-62
2022/10/06 08:24:57;;;;;;;11.90;2.88;;;16.70;68.90;;;;;;5114279;27;20448;-62
2022/10/06 08:27:28;;;;;;;9.88;2.30;;;16.80;68.70;;;;;;5116187;28;20364;-61
2022/10/06 08:29:54;;;;;;;13.30;2.58;;;16.90;68.30;;;;;;5117119;28;20027;-61
2022/10/06 08:32:21;;;;;;;9.18;2.42;;;17.10;68.10;;;;;;5116638;27;20036;-61
2022/10/06 08:34:48;;;;;;;11.00;2.58;;;17.20;67.70;;;;;;5116991;27;20035;-61
2022/10/06 08:37:14;;;;;;;9.68;2.40;;;17.40;67.30;;;;;;5116243;27;20024;-61
2022/10/06 08:39:43;;;;;;;13.43;2.70;;;17.50;66.80;;;;;;5116653;28;20034;-61
2022/10/06 08:42:15;;;;;;;13.60;2.60;;;17.70;66.20;;;;;;5115153;27;20031;-61
2022/10/06 08:44:46;;;;;;;10.35;2.35;;;17.90;65.80;;;;;;5132945;27;20030;-61
2022/10/06 08:47:18;;;;;;;11.63;2.58;;;18.00;65.40;;;;;;5116015;27;20360;-61
2022/10/06 08:49:50;;;;;;;11.10;2.70;;;18.20;65.10;;;;;;5114766;28;20015;-61
2022/10/06 08:52:37;;;;;;;10.63;2.00;;;18.40;64.60;;;;;;5115960;27;20037;-61
2022/10/06 08:55:26;;;;;;;7.60;1.92;;;18.50;64.30;;;;;;5116168;27;20039;-62
2022/10/06 08:58:00;;;;;;;8.80;2.30;;;18.70;63.80;;;;;;5118984;27;20067;-61
2022/10/06 09:00:32;;;;;;;8.77;2.05;;;18.80;63.50;;;;;;5116684;28;20114;-61
2022/10/06 09:02:59;;;;;;;7.40;1.80;;;19.00;63.30;;;;;;5117235;27;20102;-62
2022/10/06 09:05:28;;;;;;;10.35;2.33;;;19.10;62.70;;;;;;5116057;28;20455;-62
2022/10/06 09:08:03;;;;;;;12.07;2.35;;;19.30;62.30;;;;;;5115434;28;20024;-62
2022/10/06 09:10:37;;;;;;;8.88;2.38;;;19.40;61.80;;;;;;5113466;28;20027;-63
2022/10/06 09:13:20;;;;;;;7.57;1.75;;;19.50;61.60;;;;;;5117773;27;20126;-61
2022/10/06 09:15:53;;;;;;;10.52;2.25;;;19.60;61.20;;;;;;5113449;27;20349;-62
2022/10/06 09:18:33;;;;;;;8.95;1.67;;;19.70;61.00;;;;;;5115701;27;20120;-62
2022/10/06 09:21:01;;;;;;;11.65;1.85;;;19.80;60.70;;;;;;5117445;27;20107;-62
2022/10/06 09:23:46;;;;;;;9.00;2.13;;;19.80;60.40;;;;;;5115822;28;20027;-61
2022/10/06 09:26:14;;;;;;;8.80;2.10;;;19.90;59.80;;;;;;5115748;28;20019;-61
2022/10/06 09:28:39;;;;;;;11.32;2.13;;;19.90;59.60;;;;;;5115466;28;20020;-62
2022/10/06 09:31:20;;;;;;;10.27;2.00;;;19.90;59.60;;;;;;5114888;27;20106;-61
2022/10/06 09:33:48;;;;;;;8.73;2.13;;;19.80;59.30;;;;;;5122312;27;20032;-61
2022/10/06 09:36:14;;;;;;;8.63;1.45;;;19.90;59.40;;;;;;5115611;28;20296;-61
2022/10/06 09:38:52;;;;;;;9.30;1.92;;;20.10;59.20;;;;;;5115610;28;20023;-61
2022/10/06 09:41:21;;;;;;;9.73;2.22;;;20.10;58.60;;;;;;5115619;27;20449;-61
2022/10/06 09:43:53;;;;;;;8.75;1.75;;;20.20;58.50;;;;;;5115675;28;20038;-61
2022/10/06 09:46:26;;;;;;;7.05;2.10;;;20.20;58.30;;;;;;5118184;27;20027;-60
2022/10/06 09:49:11;;;;;;;10.27;1.88;;;20.20;58.10;;;;;;5110783;28;20031;-61
2022/10/06 09:51:37;;;;;;;8.57;1.73;;;20.30;57.60;;;;;;5127793;27;20039;-61
2022/10/06 09:54:13;;;;;;;6.45;1.63;;;20.20;57.60;;;;;;5115740;28;20368;-61
2022/10/06 09:56:43;;;;;;;9.48;2.15;;;20.20;57.30;;;;;;5115869;28;20102;-61
2022/10/06 09:59:33;;;;;;;11.25;2.00;;;20.20;57.30;;;;;;5115077;28;20440;-61
2022/10/06 10:02:00;;;;;;;6.97;1.50;;;20.10;57.20;;;;;;5115055;27;20096;-61
2022/10/06 10:04:30;;;;;;;6.65;1.60;;;19.90;57.60;;;;;;5115946;28;20027;-61
2022/10/06 10:07:28;;;;;;;8.13;1.88;;;19.80;57.90;;;;;;5115687;28;20038;-61
2022/10/06 10:10:14;;;;;;;8.45;1.75;;;19.80;57.80;;;;;;5092717;28;20180;-61
2022/10/06 10:12:49;;;;;;;8.75;1.50;;;19.90;57.40;;;;;;5108188;28;20067;-61
2022/10/06 10:15:18;;;;;;;4.13;1.27;;;19.80;56.70;;;;;;5113142;28;20031;-61
2022/10/06 10:17:45;;;;;;;8.32;1.63;;;19.80;56.70;;;;;;5113463;28;20501;-61
2022/10/06 10:20:23;;;;;;;11.40;1.58;;;19.70;56.50;;;;;;5115323;28;20027;-61
2022/10/06 10:22:51;;;;;;;7.50;2.25;;;19.70;56.70;;;;;;5113109;28;20443;-62
2022/10/06 10:25:43;;;;;;;10.80;1.90;;;19.60;56.70;;;;;;5114762;28;20036;-62
2022/10/06 10:28:16;;;;;;;9.13;2.13;;;19.50;56.60;;;;;;5107541;28;20348;-62
2022/10/06 10:31:02;;;;;;;8.95;1.58;;;19.50;56.50;;;;;;5123262;27;20455;-62
2022/10/06 10:33:58;;;;;;;7.75;1.75;;;19.60;56.30;;;;;;5114430;28;20134;-62
2022/10/06 10:36:43;;;;;;;9.63;2.15;;;19.70;56.30;;;;;;5115099;27;20106;-62
2022/10/06 10:39:14;;;;;;;9.75;1.52;;;19.50;56.40;;;;;;5113368;28;20039;-62
2022/10/06 10:41:46;;;;;;;6.28;1.30;;;19.50;56.50;;;;;;5114200;28;20023;-62
2022/10/06 10:44:36;;;;;;;7.85;1.65;;;19.60;56.50;;;;;;5115136;28;20031;-62
2022/10/06 10:47:17;;;;;;;7.13;1.35;;;19.70;56.20;;;;;;5115057;28;20546;-62
2022/10/06 10:49:51;;;;;;;5.80;1.52;;;19.60;56.40;;;;;;5114610;28;20039;-61
2022/10/06 10:52:26;;;;;;;8.02;1.80;;;19.50;56.50;;;;;;5101164;28;20043;-61
2022/10/06 10:55:19;;;;;;;8.55;2.10;;;19.40;56.70;;;;;;5114006;28;20092;-62
2022/10/06 10:57:46;;;;;;;6.25;1.60;;;19.40;56.80;;;;;;5109339;28;20035;-62
2022/10/06 11:00:26;;;;;;;6.03;1.70;;;19.60;56.80;;;;;;5112579;28;20035;-63
2022/10/06 11:02:56;;;;;;;7.45;1.83;;;19.60;56.40;;;;;;5120523;27;20031;-63
2022/10/06 11:05:51;;;;;;;7.10;1.85;;;19.50;56.50;;;;;;5117494;28;20031;-62
2022/10/06 11:08:31;;;;;;;8.38;1.80;;;19.40;56.50;;;;;;5111485;28;20031;-62
2022/10/06 11:11:01;;;;;;;11.07;1.80;;;19.40;56.60;;;;;;5113742;28;20509;-62
2022/10/06 11:13:42;;;;;;;8.65;1.75;;;19.30;56.50;;;;;;5113043;28;20187;-62
2022/10/06 11:16:32;;;;;;;7.07;1.83;;;19.20;56.50;;;;;;5115195;28;20023;-63
2022/10/06 11:19:01;;;;;;;8.35;1.80;;;19.10;56.70;;;;;;5114020;28;20040;-62
2022/10/06 11:21:38;;;;;;;5.72;1.88;;;18.90;57.00;;;;;;5112255;28;20047;-61
2022/10/06 11:24:24;;;;;;;8.57;1.75;;;18.80;57.20;;;;;;5111839;28;20028;-62
2022/10/06 11:27:02;;;;;;;6.20;1.42;;;19.00;57.00;;;;;;5104990;28;20024;-61
2022/10/06 11:30:01;;;;;;;6.32;1.55;;;19.20;56.70;;;;;;5110762;28;20039;-62
2022/10/06 11:32:38;;;;;;;7.13;1.48;;;19.40;56.20;;;;;;5116267;27;20031;-62
2022/10/06 11:35:20;;;;;;;7.03;1.65;;;19.50;55.80;;;;;;5114142;28;20063;-62
2022/10/06 11:38:06;;;;;;;6.50;1.40;;;19.60;55.50;;;;;;5114068;28;20101;-61
2022/10/06 11:40:38;;;;;;;7.95;1.67;;;19.50;55.60;;;;;;5102215;28;20031;-61
2022/10/06 11:43:16;;;;;;;9.38;2.10;;;19.20;55.50;;;;;;5117551;28;20126;-62
2022/10/06 11:46:03;;;;;;;5.72;1.80;;;19.00;55.80;;;;;;5117967;28;20024;-61
2022/10/06 11:48:31;;;;;;;5.85;1.85;;;18.80;55.90;;;;;;5116389;28;20012;-61
2022/10/06 11:51:20;;;;;;;7.05;1.40;;;18.70;56.20;;;;;;5115583;28;20081;-61
2022/10/06 11:53:46;;;;;;;6.40;1.63;;;18.80;56.10;;;;;;5116023;28;20044;-62
2022/10/06 11:56:17;;;;;;;9.45;1.63;;;18.80;55.90;;;;;;5118068;27;20046;-62
2022/10/06 11:58:55;;;;;;;5.93;1.40;;;19.00;55.70;;;;;;5118254;28;20157;-62
2022/10/06 12:01:29;;;;;;;6.65;1.70;;;19.10;55.60;;;;;;5119604;27;20031;-61
2022/10/06 12:04:07;;;;;;;6.60;1.40;;;19.20;55.70;;;;;;5127266;27;20042;-61
2022/10/06 12:06:44;;;;;;;7.28;1.48;;;19.30;55.50;;;;;;5117205;28;20106;-61
2022/10/06 12:09:27;;;;;;;7.22;1.85;;;19.40;55.60;;;;;;5118090;28;20024;-61
2022/10/06 12:11:54;;;;;;;6.20;1.38;;;19.50;55.50;;;;;;5117931;28;20092;-61
2022/10/06 12:14:29;;;;;;;7.43;1.52;;;19.60;55.40;;;;;;5117742;28;20020;-61
2022/10/06 12:17:03;;;;;;;5.35;1.58;;;19.70;55.40;;;;;;5117203;28;20118;-61
2022/10/06 12:19:54;;;;;;;4.43;1.17;;;19.70;55.40;;;;;;5117615;28;20051;-61
2022/10/06 12:23:12;;;;;;;4.80;1.10;;;19.70;54.50;;;;;;5118130;27;20031;-61
2022/10/06 12:25:57;;;;;;;6.70;1.73;;;19.50;54.40;;;;;;5075250;28;20313;-61
2022/10/06 12:28:37;;;;;;;5.75;1.50;;;19.40;54.70;;;;;;5075578;28;20041;-61
2022/10/06 12:31:24;;;;;;;7.38;1.60;;;19.30;54.70;;;;;;5057607;28;20448;-61
2022/10/06 12:33:50;;;;;;;5.78;1.15;;;19.20;54.80;;;;;;5074768;28;20141;-61
2022/10/06 12:36:28;;;;;;;5.43;1.30;;;19.10;54.90;;;;;;5075510;28;20459;-61
2022/10/06 12:39:05;;;;;;;6.10;1.33;;;19.00;55.00;;;;;;5075578;28;20040;-60
2022/10/06 12:41:52;;;;;;;10.05;1.63;;;19.10;55.10;;;;;;5075258;28;20040;-61
2022/10/06 12:44:24;;;;;;;4.78;1.48;;;19.10;55.10;;;;;;5074552;28;20036;-61
2022/10/06 12:46:51;;;;;;;6.32;1.40;;;19.20;55.10;;;;;;5073734;28;20033;-62
2022/10/06 12:49:52;;;;;;;4.90;1.42;;;19.20;55.10;;;;;;5080636;28;20571;-61
2022/10/06 12:52:43;;;;;;;5.05;1.55;;;19.30;55.10;;;;;;5050763;28;20052;-61
2022/10/06 12:55:46;;;;;;;6.53;1.58;;;19.40;55.00;;;;;;5073628;28;20032;-61
2022/10/06 12:58:27;;;;;;;3.90;1.30;;;19.40;54.90;;;;;;5064467;28;20043;-61
2022/10/06 13:00:58;;;;;;;10.27;2.40;;;19.40;54.90;;;;;;5073548;28;20048;-61
2022/10/06 13:03:24;;;;;;;;;;;19.40;55.20;;;;;;5120069;27;20137;-61
2022/10/06 13:05:54;;;;;;;5.00;1.35;;;19.30;55.50;;;;;;5116566;28;19951;-61
2022/10/06 13:08:26;;;;;;;6.65;1.80;;;19.20;55.70;;;;;;5114896;27;20022;-62
2022/10/06 13:11:20;;;;;;;4.50;1.13;;;19.10;55.70;;;;;;5117165;28;20031;-61
2022/10/06 13:13:51;;;;;;;8.73;1.50;;;19.00;55.70;;;;;;5116807;28;20038;-61
2022/10/06 13:16:20;;;;;;;7.68;1.40;;;18.90;55.90;;;;;;5115565;27;20352;-61
2022/10/06 13:18:47;;;;;;;6.20;1.15;;;18.80;55.90;;;;;;5116028;28;20429;-61